Time;durP1;ratioP1;P1;durP2;ratioP2;P2;SDS_P1;SDS_P2;PMS_P1;PMS_P2;Temp;Humidity;BMP_temperature;BMP_pressure;BME280_temperature;BME280_humidity;BME280_pressure;Samples;Min_cycle;Max_cycle;Signal;HPM_P1;HPM_P2
2022/12/23 00:00:18;;;;;;;154.23;72.07;;;9.50;99.90;;;;;;5011821;28;20186;-76
2022/12/23 00:02:44;;;;;;;1999.90;999.90;;;9.40;99.90;;;;;;5011961;28;20455;-77
2022/12/23 00:05:09;;;;;;;1999.90;999.90;;;9.40;99.90;;;;;;5012351;28;20425;-76
2022/12/23 00:07:35;;;;;;;1999.90;999.90;;;9.50;99.90;;;;;;5012648;28;20187;-75
2022/12/23 00:10:01;;;;;;;1999.90;999.90;;;9.50;99.90;;;;;;5012352;28;20221;-75
2022/12/23 00:15:11;;;;;;;1999.90;999.90;;;9.50;99.90;;;;;;5012211;28;20419;-76
2022/12/23 00:17:41;;;;;;;1999.90;999.90;;;9.50;99.90;;;;;;5012215;28;20460;-75
2022/12/23 00:20:08;;;;;;;1999.90;999.90;;;9.50;99.90;;;;;;5012389;28;20906;-76
2022/12/23 00:25:18;;;;;;;1999.90;999.90;;;9.50;99.90;;;;;;5012991;28;20516;-76
2022/12/23 00:28:00;;;;;;;1999.90;999.90;;;9.50;99.90;;;;;;5012178;28;20981;-76
2022/12/23 00:30:27;;;;;;;1999.90;999.90;;;9.50;99.90;;;;;;5012080;28;20213;-78
2022/12/23 00:32:52;;;;;;;1999.90;999.90;;;9.50;99.90;;;;;;5012116;28;20455;-75
2022/12/23 00:35:18;;;;;;;1999.90;999.90;;;9.50;99.90;;;;;;5012822;28;20922;-76
2022/12/23 00:37:43;;;;;;;1999.90;999.90;;;9.50;99.90;;;;;;5012558;28;20302;-76
2022/12/23 00:42:57;;;;;;;1999.90;999.90;;;9.50;99.90;;;;;;5012226;28;20211;-76
2022/12/23 00:45:23;;;;;;;1999.90;999.90;;;9.60;99.90;;;;;;5011135;28;20417;-75
2022/12/23 00:50:35;;;;;;;1999.90;999.90;;;9.60;99.90;;;;;;5011558;28;20215;-76
2022/12/23 00:53:01;;;;;;;134.30;52.17;;;9.60;99.90;;;;;;5011731;28;20843;-76
2022/12/23 00:55:27;;;;;;;1999.90;999.90;;;9.60;99.90;;;;;;5011631;28;20413;-77
2022/12/23 00:57:52;;;;;;;1999.90;999.90;;;9.70;99.90;;;;;;5011752;28;20182;-76
2022/12/23 01:00:18;;;;;;;1999.90;999.90;;;9.70;99.90;;;;;;5011378;28;20315;-76
2022/12/23 01:05:37;;;;;;;1999.90;999.90;;;9.70;99.90;;;;;;5011943;28;21100;-76
2022/12/23 01:08:04;;;;;;;1999.90;999.90;;;9.70;99.90;;;;;;5013088;28;20415;-75
2022/12/23 01:10:30;;;;;;;1417.77;707.00;;;9.80;99.90;;;;;;5015209;28;20972;-75
2022/12/23 01:12:55;;;;;;;13.80;0.90;;;9.90;99.90;;;;;;5015102;28;20440;-75
2022/12/23 01:15:21;;;;;;;49.43;1.47;;;9.90;99.90;;;;;;5015223;28;20185;-75
2022/12/23 01:17:46;;;;;;;42.57;1.30;;;9.90;99.90;;;;;;5015343;28;20172;-76
2022/12/23 01:20:12;;;;;;;25.27;0.70;;;9.90;99.90;;;;;;5015094;28;20210;-75
2022/12/23 01:22:38;;;;;;;30.50;0.80;;;9.90;99.90;;;;;;5014754;28;20212;-74
2022/12/23 01:25:04;;;;;;;51.90;1.47;;;9.90;99.90;;;;;;5015231;28;20653;-75
2022/12/23 01:27:29;;;;;;;57.70;1.63;;;10.00;99.90;;;;;;5014912;28;20685;-75
2022/12/23 01:29:55;;;;;;;56.10;1.60;;;10.00;99.90;;;;;;5015002;28;20809;-75
2022/12/23 01:32:20;;;;;;;54.00;1.40;;;10.00;99.90;;;;;;5014547;28;20301;-75
2022/12/23 01:34:45;;;;;;;50.40;1.20;;;10.00;99.90;;;;;;5015247;28;20178;-76
2022/12/23 01:37:11;;;;;;;52.20;1.30;;;10.00;99.90;;;;;;5014509;28;20179;-74
2022/12/23 01:39:36;;;;;;;48.00;1.10;;;10.10;99.90;;;;;;5015022;28;20261;-76
2022/12/23 01:44:59;;;;;;;44.43;0.93;;;10.10;99.90;;;;;;5015200;28;20217;-75
2022/12/23 01:47:36;;;;;;;31.50;0.70;;;10.10;99.90;;;;;;5014695;28;20422;-75
2022/12/23 01:50:10;;;;;;;28.80;0.60;;;10.20;99.90;;;;;;5014784;28;21012;-76
2022/12/23 01:53:02;;;;;;;25.40;0.70;;;10.20;99.90;;;;;;5014546;28;20436;-75
2022/12/23 01:55:31;;;;;;;22.07;0.80;;;10.30;99.90;;;;;;5014546;28;20435;-76
2022/12/23 01:58:04;;;;;;;23.03;0.70;;;10.30;99.90;;;;;;5014772;28;20464;-77
2022/12/23 03:31:13;;;;;;;59.37;1.40;;;11.10;99.90;;;;;;5985889;23;20397;-78
2022/12/23 03:33:44;;;;;;;56.70;1.30;;;11.10;99.90;;;;;;5055995;28;20408;-75
2022/12/23 03:36:21;;;;;;;40.70;0.70;;;11.20;99.90;;;;;;5052084;28;20439;-74
2022/12/23 03:38:50;;;;;;;38.43;1.10;;;11.10;99.90;;;;;;5053273;28;20415;-74
2022/12/23 03:41:23;;;;;;;33.10;0.70;;;11.10;99.90;;;;;;5048191;28;20432;-75
2022/12/23 03:43:53;;;;;;;27.50;0.60;;;11.00;99.90;;;;;;5037923;28;20779;-75
2022/12/23 03:46:26;;;;;;;33.20;0.60;;;11.00;99.90;;;;;;5039289;28;20487;-76
2022/12/23 03:48:55;;;;;;;25.33;0.60;;;10.90;99.90;;;;;;5039349;28;20456;-76
2022/12/23 03:51:28;;;;;;;401.83;368.73;;;10.90;99.90;;;;;;5038983;28;20455;-76
2022/12/23 03:54:00;;;;;;;49.00;0.70;;;10.90;99.90;;;;;;5037992;28;20413;-77
2022/12/23 03:56:48;;;;;;;27.70;0.60;;;11.00;99.90;;;;;;5035343;28;20391;-76
2022/12/23 03:59:45;;;;;;;619.00;580.70;;;10.90;99.90;;;;;;5032024;28;20986;-76
2022/12/23 04:02:40;;;;;;;22.87;0.50;;;10.90;99.90;;;;;;5026891;28;20467;-77
2022/12/23 04:05:21;;;;;;;16.27;0.50;;;10.90;99.90;;;;;;5032169;28;20420;-76
2022/12/23 04:07:57;;;;;;;33.00;0.70;;;10.90;99.90;;;;;;5031987;28;20408;-76
2022/12/23 04:10:24;;;;;;;41.43;0.80;;;10.90;99.90;;;;;;5031995;28;20981;-76
2022/12/23 04:12:50;;;;;;;37.30;0.80;;;10.90;99.90;;;;;;5031533;28;20487;-76
2022/12/23 04:15:24;;;;;;;44.17;0.90;;;10.80;99.90;;;;;;5031942;28;20486;-76
2022/12/23 04:17:51;;;;;;;58.07;1.37;;;10.80;99.90;;;;;;5031772;28;20481;-76
2022/12/23 04:20:17;;;;;;;37.10;0.70;;;10.80;99.90;;;;;;5031826;28;20503;-75
2022/12/23 04:22:43;;;;;;;18.10;0.60;;;10.80;99.90;;;;;;5031335;28;20447;-76
2022/12/23 04:25:10;;;;;;;15.73;0.60;;;10.80;99.90;;;;;;5031695;28;20423;-76
2022/12/23 04:27:35;;;;;;;27.67;0.60;;;10.70;99.90;;;;;;5031733;28;20218;-76
2022/12/23 04:30:01;;;;;;;16.07;0.57;;;10.70;99.90;;;;;;5017352;28;20507;-75
2022/12/23 04:32:27;;;;;;;18.17;0.70;;;10.70;99.90;;;;;;5011360;28;20581;-76
2022/12/23 04:34:52;;;;;;;25.77;0.80;;;10.70;99.90;;;;;;5012044;28;20635;-76
2022/12/23 04:37:18;;;;;;;34.07;0.90;;;10.70;99.90;;;;;;5011681;28;20183;-76
2022/12/23 04:39:43;;;;;;;14.27;0.60;;;10.70;99.90;;;;;;5011653;28;20226;-76
2022/12/23 04:42:09;;;;;;;13.40;0.60;;;10.80;99.90;;;;;;5010877;28;20281;-76
2022/12/23 04:44:34;;;;;;;13.90;0.60;;;10.80;99.90;;;;;;5011751;28;20174;-76
2022/12/23 04:47:00;;;;;;;17.67;0.70;;;10.90;99.90;;;;;;5011719;28;20186;-76
2022/12/23 04:49:25;;;;;;;14.53;0.60;;;10.90;99.90;;;;;;5011603;28;20205;-75
2022/12/23 04:51:51;;;;;;;15.60;0.77;;;11.00;99.90;;;;;;5011311;28;20186;-75
2022/12/23 04:54:16;;;;;;;10.73;0.60;;;11.00;99.90;;;;;;5011611;28;20249;-75
2022/12/23 04:56:42;;;;;;;15.90;0.70;;;11.00;99.90;;;;;;5011644;28;20220;-75
2022/12/23 04:59:08;;;;;;;18.03;0.80;;;11.00;99.90;;;;;;5011489;28;20217;-75
2022/12/23 05:01:34;;;;;;;14.37;0.60;;;11.10;99.90;;;;;;5011334;28;20206;-76
2022/12/23 05:03:59;;;;;;;11.97;0.60;;;11.10;99.90;;;;;;5011818;28;20832;-76
2022/12/23 05:06:25;;;;;;;27.03;0.70;;;11.10;99.90;;;;;;5011548;28;20640;-76
2022/12/23 05:08:51;;;;;;;22.73;0.60;;;11.10;99.90;;;;;;5011283;28;20217;-75
2022/12/23 05:11:16;;;;;;;23.73;0.77;;;11.00;99.90;;;;;;5011216;28;20220;-77
2022/12/23 05:13:42;;;;;;;38.27;0.70;;;11.10;99.90;;;;;;5011077;28;20214;-75
2022/12/23 05:16:07;;;;;;;38.93;0.80;;;11.10;99.90;;;;;;5011506;28;20262;-77
2022/12/23 05:18:33;;;;;;;36.47;0.70;;;11.10;99.90;;;;;;5011249;28;20206;-76
2022/12/23 05:20:58;;;;;;;35.63;0.90;;;11.10;99.90;;;;;;5011434;28;20202;-76
2022/12/23 05:23:24;;;;;;;18.90;0.60;;;11.10;99.90;;;;;;5011253;28;20609;-77
2022/12/23 05:25:51;;;;;;;19.17;0.63;;;11.00;99.90;;;;;;5011404;28;20262;-75
2022/12/23 05:28:17;;;;;;;44.50;2.10;;;11.00;99.90;;;;;;5011628;28;20179;-76
2022/12/23 05:30:42;;;;;;;36.93;0.73;;;11.00;99.90;;;;;;5030704;28;20511;-76
2022/12/23 05:33:08;;;;;;;18.77;0.60;;;11.00;99.90;;;;;;5030844;28;20186;-76
2022/12/23 05:35:33;;;;;;;12.40;0.50;;;11.00;99.90;;;;;;5030724;28;20654;-76
2022/12/23 05:38:01;;;;;;;20.87;0.90;;;11.10;99.90;;;;;;5031258;28;20578;-75
2022/12/23 05:40:27;;;;;;;13.60;0.70;;;11.10;99.90;;;;;;5030872;28;20696;-76
2022/12/23 05:42:52;;;;;;;13.07;0.67;;;11.10;99.90;;;;;;5030699;28;20429;-76
2022/12/23 05:45:18;;;;;;;10.87;0.60;;;11.20;99.90;;;;;;5030886;28;20170;-76
2022/12/23 05:47:43;;;;;;;25.47;0.83;;;11.20;99.90;;;;;;5030900;28;20524;-77
2022/12/23 05:50:09;;;;;;;35.37;2.10;;;11.20;99.90;;;;;;5030935;28;20297;-76
2022/12/23 05:52:34;;;;;;;16.97;0.70;;;11.20;99.90;;;;;;5030654;28;20194;-77
2022/12/23 05:55:00;;;;;;;16.77;0.70;;;11.20;99.90;;;;;;5033844;28;20688;-78
2022/12/23 05:57:25;;;;;;;30.57;1.00;;;11.20;99.90;;;;;;5034813;28;20174;-76
2022/12/23 05:59:51;;;;;;;44.57;0.80;;;11.10;99.90;;;;;;5034732;28;20196;-77
2022/12/23 06:02:16;;;;;;;30.33;0.80;;;11.10;99.90;;;;;;5034219;28;20201;-78
2022/12/23 06:04:42;;;;;;;28.27;0.90;;;11.10;99.90;;;;;;5034379;28;20247;-76
2022/12/23 06:07:08;;;;;;;9.30;0.60;;;11.10;99.90;;;;;;5034141;28;20182;-76
2022/12/23 06:09:34;;;;;;;10.00;0.70;;;11.10;99.90;;;;;;5034316;28;20204;-77
2022/12/23 06:11:59;;;;;;;10.83;0.80;;;11.10;99.90;;;;;;5033879;28;20519;-76
2022/12/23 06:14:25;;;;;;;6.10;0.70;;;11.00;99.90;;;;;;5034029;28;20638;-77
2022/12/23 06:16:50;;;;;;;16.77;0.70;;;11.00;99.90;;;;;;5034089;28;20177;-77
2022/12/23 06:19:17;;;;;;;30.20;2.60;;;11.00;99.90;;;;;;5034067;28;20174;-76
2022/12/23 06:21:43;;;;;;;26.07;0.80;;;11.00;99.90;;;;;;5033919;28;20221;-76
2022/12/23 06:24:08;;;;;;;11.27;0.90;;;11.00;99.90;;;;;;5034075;28;20840;-77
2022/12/23 06:26:34;;;;;;;10.17;0.70;;;10.90;99.90;;;;;;5034131;28;20520;-74
2022/12/23 06:29:00;;;;;;;11.60;0.73;;;10.90;99.90;;;;;;5027593;28;20289;-76
2022/12/23 06:31:26;;;;;;;17.10;0.90;;;10.90;99.90;;;;;;5013873;28;20561;-76
2022/12/23 06:33:51;;;;;;;13.50;0.90;;;10.90;99.90;;;;;;5013915;28;20213;-77
2022/12/23 06:36:17;;;;;;;12.73;0.80;;;10.90;99.90;;;;;;5014055;28;20178;-76
2022/12/23 06:38:42;;;;;;;10.97;0.90;;;10.90;99.90;;;;;;5013631;28;20545;-76
2022/12/23 06:41:08;;;;;;;11.83;1.27;;;10.90;99.90;;;;;;5013712;28;20201;-77
2022/12/23 06:43:33;;;;;;;11.00;1.30;;;10.90;99.90;;;;;;5013545;28;20175;-76
2022/12/23 06:45:59;;;;;;;10.10;1.47;;;10.90;99.90;;;;;;5014041;28;20662;-77
2022/12/23 06:48:24;;;;;;;101.47;12.10;;;10.90;99.90;;;;;;5013886;28;20199;-76
2022/12/23 06:50:50;;;;;;;97.80;11.40;;;10.80;99.90;;;;;;5013361;28;20635;-76
2022/12/23 06:53:15;;;;;;;88.53;7.23;;;10.90;99.90;;;;;;5013602;28;20261;-76
2022/12/23 06:55:41;;;;;;;2.03;1.43;;;10.90;99.90;;;;;;5013508;28;20173;-76
2022/12/23 06:58:07;;;;;;;11.33;7.60;;;10.90;99.90;;;;;;5013751;28;20171;-75
2022/12/23 07:00:32;;;;;;;4.20;2.20;;;10.80;99.90;;;;;;5013255;28;20421;-74
2022/12/23 07:02:58;;;;;;;2.53;1.90;;;10.80;99.90;;;;;;5013199;28;20273;-75
2022/12/23 07:05:23;;;;;;;3.17;1.93;;;10.80;99.90;;;;;;5018420;28;20702;-73
2022/12/23 07:07:49;;;;;;;1.63;1.37;;;10.80;99.90;;;;;;5027234;28;20264;-75
2022/12/23 07:10:15;;;;;;;1.90;1.70;;;10.80;99.90;;;;;;5032843;28;20205;-75
2022/12/23 07:12:40;;;;;;;3.40;1.70;;;10.80;99.90;;;;;;5032685;28;20261;-75
2022/12/23 07:15:06;;;;;;;2.90;2.47;;;10.70;99.90;;;;;;5032831;28;20170;-75
2022/12/23 07:17:32;;;;;;;2.20;1.33;;;10.70;99.90;;;;;;5032860;28;20174;-76
2022/12/23 07:19:57;;;;;;;4.23;1.90;;;10.80;99.90;;;;;;5032740;28;20409;-75
2022/12/23 07:22:23;;;;;;;2.57;1.83;;;10.80;99.90;;;;;;5032538;28;20662;-75
2022/12/23 07:24:49;;;;;;;3.53;2.20;;;10.70;99.90;;;;;;5032885;28;20238;-75
2022/12/23 07:27:14;;;;;;;6.00;2.20;;;10.80;99.90;;;;;;5032787;28;20236;-75
2022/12/23 07:29:40;;;;;;;4.07;1.93;;;10.70;99.90;;;;;;5021053;28;20602;-72
2022/12/23 07:32:05;;;;;;;1.60;1.50;;;10.70;99.90;;;;;;5014377;28;20218;-75
2022/12/23 07:34:31;;;;;;;5.17;2.00;;;10.70;99.90;;;;;;5032226;28;20178;-75
2022/12/23 07:36:56;;;;;;;5.63;2.10;;;10.60;99.90;;;;;;5032536;28;20593;-74
2022/12/23 07:39:22;;;;;;;2.17;2.00;;;10.60;99.90;;;;;;5020534;28;20277;-76
2022/12/23 07:41:47;;;;;;;3.53;2.70;;;10.60;99.90;;;;;;5012500;28;20206;-75
2022/12/23 07:44:13;;;;;;;4.37;2.87;;;10.60;99.90;;;;;;5013006;28;20187;-75
2022/12/23 07:46:39;;;;;;;6.43;2.83;;;10.60;99.90;;;;;;5012696;28;20178;-75
2022/12/23 07:49:04;;;;;;;4.60;4.10;;;10.60;99.90;;;;;;5015244;28;20221;-76
2022/12/23 07:51:30;;;;;;;6.60;3.07;;;10.60;99.90;;;;;;5025480;28;20201;-75
2022/12/23 07:53:56;;;;;;;4.67;2.77;;;10.60;99.90;;;;;;5012533;28;20182;-75
2022/12/23 07:56:21;;;;;;;3.40;2.97;;;10.70;99.90;;;;;;5025859;28;20189;-75
2022/12/23 07:58:48;;;;;;;4.37;2.40;;;10.70;99.90;;;;;;5032053;28;20170;-74
2022/12/23 08:01:14;;;;;;;6.20;2.20;;;10.70;99.90;;;;;;5014260;28;20674;-74
2022/12/23 08:03:39;;;;;;;3.60;2.53;;;10.70;99.90;;;;;;5032267;28;20420;-75
2022/12/23 08:06:08;;;;;;;2.43;2.23;;;10.70;99.90;;;;;;5033163;28;20178;-75
2022/12/23 08:08:34;;;;;;;3.33;2.63;;;10.70;99.90;;;;;;5018220;28;20179;-75
2022/12/23 08:11:04;;;;;;;3.70;2.60;;;10.70;99.90;;;;;;5012065;28;20515;-76
2022/12/23 08:13:31;;;;;;;3.70;2.57;;;10.70;99.90;;;;;;5012703;28;20410;-74
2022/12/23 08:15:58;;;;;;;2.80;2.60;;;10.70;99.90;;;;;;5011997;28;20508;-74
2022/12/23 08:18:28;;;;;;;4.30;2.53;;;10.70;99.90;;;;;;5012075;28;20445;-76
2022/12/23 08:21:01;;;;;;;2.60;2.40;;;10.70;99.90;;;;;;5011789;28;20432;-75
2022/12/23 08:23:29;;;;;;;4.97;2.83;;;10.70;99.90;;;;;;5011816;28;20516;-76
2022/12/23 08:26:21;;;;;;;2.10;1.40;;;10.80;99.90;;;;;;5012074;28;20414;-74
2022/12/23 08:28:48;;;;;;;1.53;0.70;;;10.80;99.90;;;;;;5007856;28;20429;-74
2022/12/23 08:31:13;;;;;;;1.63;1.53;;;10.80;99.90;;;;;;5011414;28;21132;-75
2022/12/23 08:33:41;;;;;;;1.17;1.07;;;10.90;99.90;;;;;;5011760;28;20493;-76
2022/12/23 08:36:08;;;;;;;0.80;0.80;;;10.90;99.90;;;;;;5011773;28;20193;-75
2022/12/23 08:38:35;;;;;;;0.90;0.70;;;11.00;99.90;;;;;;5011421;28;20413;-75
2022/12/23 08:41:00;;;;;;;1.30;0.60;;;11.00;99.90;;;;;;5011617;28;20433;-75
2022/12/23 08:43:26;;;;;;;2.40;0.50;;;11.10;99.90;;;;;;5011653;28;20776;-76
2022/12/23 08:45:52;;;;;;;2.70;0.60;;;11.10;99.90;;;;;;5015434;28;20184;-75
2022/12/23 08:48:18;;;;;;;1.10;0.83;;;11.10;99.90;;;;;;5031415;28;20416;-75
2022/12/23 08:50:45;;;;;;;1.87;0.80;;;11.10;99.90;;;;;;5030967;28;20452;-75
2022/12/23 08:53:12;;;;;;;1.73;0.90;;;11.20;99.90;;;;;;5020337;28;20179;-75
2022/12/23 08:55:39;;;;;;;0.90;0.77;;;11.20;99.90;;;;;;5011872;28;20480;-75
2022/12/23 08:58:05;;;;;;;1.50;0.67;;;11.20;99.90;;;;;;5026871;28;20432;-75
2022/12/23 09:00:31;;;;;;;1.97;0.80;;;11.20;99.90;;;;;;5030614;28;20487;-75
2022/12/23 09:02:56;;;;;;;8.80;0.77;;;11.20;99.90;;;;;;5012787;28;20956;-75
2022/12/23 09:05:22;;;;;;;4.47;0.77;;;11.20;99.90;;;;;;5031234;28;20177;-75
2022/12/23 09:07:47;;;;;;;0.60;0.60;;;11.30;99.90;;;;;;5030201;28;20182;-76
2022/12/23 09:10:13;;;;;;;3.60;0.67;;;11.30;99.90;;;;;;5013207;28;20198;-75
2022/12/23 09:12:38;;;;;;;3.00;0.70;;;11.30;99.90;;;;;;5030484;28;20190;-75
2022/12/23 09:15:04;;;;;;;2.20;0.80;;;11.30;99.90;;;;;;5030638;28;20185;-75
2022/12/23 09:17:30;;;;;;;2.30;0.93;;;11.30;99.90;;;;;;5031318;28;20220;-74
2022/12/23 09:19:55;;;;;;;0.50;0.50;;;11.30;99.90;;;;;;5031058;28;20477;-75
2022/12/23 09:22:21;;;;;;;4.40;0.73;;;11.40;99.90;;;;;;5031077;28;20255;-74
2022/12/23 09:24:46;;;;;;;1.50;1.30;;;11.40;99.90;;;;;;5030183;28;20273;-75
2022/12/23 09:27:12;;;;;;;1.27;0.70;;;11.40;99.90;;;;;;5029076;28;20178;-74
2022/12/23 09:29:38;;;;;;;0.70;0.60;;;11.40;99.90;;;;;;5029269;28;20214;-76
2022/12/23 09:32:03;;;;;;;0.97;0.97;;;11.40;99.90;;;;;;5031494;28;20217;-74
2022/12/23 09:34:29;;;;;;;1.77;1.03;;;11.40;99.90;;;;;;5026309;28;20186;-74
2022/12/23 09:36:54;;;;;;;0.90;0.90;;;11.40;99.90;;;;;;5027165;28;20552;-75
2022/12/23 09:39:20;;;;;;;1.57;0.70;;;11.40;99.90;;;;;;5020086;28;20776;-75
2022/12/23 09:41:52;;;;;;;1.57;0.97;;;11.50;99.90;;;;;;5023497;28;20195;-75
2022/12/23 09:44:37;;;;;;;1.23;0.80;;;11.50;99.90;;;;;;5022496;28;20213;-74
2022/12/23 09:47:09;;;;;;;1.33;0.80;;;11.50;99.90;;;;;;5024083;28;20432;-72
2022/12/23 09:49:44;;;;;;;1.10;0.90;;;11.60;99.90;;;;;;5021288;28;20448;-75
2022/12/23 09:52:16;;;;;;;3.23;0.80;;;11.70;99.90;;;;;;5023463;28;20440;-75
2022/12/23 09:54:46;;;;;;;1.27;1.17;;;11.70;99.90;;;;;;5023957;28;20421;-75
2022/12/23 09:57:44;;;;;;;2.40;1.37;;;11.70;99.90;;;;;;5020731;28;20417;-75
2022/12/23 10:00:18;;;;;;;1.07;0.90;;;11.80;99.90;;;;;;5016031;28;20421;-75
2022/12/23 10:03:05;;;;;;;1.00;0.90;;;11.80;99.90;;;;;;5014438;28;20441;-75
2022/12/23 10:05:43;;;;;;;3.37;1.57;;;11.80;99.90;;;;;;5021263;28;20425;-74
2022/12/23 10:08:15;;;;;;;1.30;0.97;;;11.80;99.90;;;;;;5014321;28;20406;-76
2022/12/23 10:10:48;;;;;;;1.67;1.10;;;11.80;99.90;;;;;;5012410;28;21061;-75
2022/12/23 10:13:26;;;;;;;1.10;0.90;;;11.90;99.90;;;;;;5027785;28;20758;-75
2022/12/23 10:15:56;;;;;;;0.90;0.80;;;11.90;99.90;;;;;;5031284;28;20922;-75
2022/12/23 10:18:41;;;;;;;2.00;0.93;;;11.90;99.90;;;;;;5008434;28;20425;-73
2022/12/23 10:21:23;;;;;;;1.77;1.00;;;11.90;99.90;;;;;;4995730;28;20445;-72
2022/12/23 10:23:52;;;;;;;4.60;1.03;;;11.90;99.90;;;;;;5036355;28;20425;-72
2022/12/23 10:26:28;;;;;;;1.30;1.17;;;11.90;99.90;;;;;;5032159;28;20416;-72
2022/12/23 10:29:15;;;;;;;3.30;1.30;;;11.90;99.90;;;;;;5015559;28;20447;-71
2022/12/23 10:32:18;;;;;;;2.30;1.03;;;11.90;99.90;;;;;;5029219;28;20452;-72
2022/12/23 10:34:55;;;;;;;2.47;1.10;;;11.90;99.90;;;;;;5041237;28;20423;-72
2022/12/23 10:37:42;;;;;;;1.40;1.30;;;11.90;99.90;;;;;;5032999;28;20941;-71
2022/12/23 10:40:29;;;;;;;1.17;1.07;;;12.00;99.90;;;;;;5034996;28;20417;-72
2022/12/23 10:43:12;;;;;;;1.10;1.00;;;12.00;99.90;;;;;;5031433;28;20432;-73
2022/12/23 10:45:56;;;;;;;1.33;1.23;;;12.00;99.90;;;;;;5030093;28;20424;-72
2022/12/23 10:48:54;;;;;;;3.47;1.47;;;12.10;99.90;;;;;;5033523;28;20413;-72
2022/12/23 10:51:32;;;;;;;3.43;1.70;;;12.20;99.90;;;;;;5024428;28;20452;-73
2022/12/23 10:54:12;;;;;;;1.50;1.40;;;12.20;99.90;;;;;;5032590;28;20428;-73
2022/12/23 10:56:39;;;;;;;3.07;1.50;;;12.20;99.90;;;;;;5023513;28;20421;-73
2022/12/23 10:59:05;;;;;;;1.63;1.53;;;12.20;99.90;;;;;;5017473;28;20464;-72
2022/12/23 11:01:31;;;;;;;1.23;1.03;;;12.20;99.90;;;;;;5035894;28;20821;-72
2022/12/23 11:04:13;;;;;;;1.80;1.30;;;12.20;99.90;;;;;;5015826;28;20416;-72
2022/12/23 11:06:42;;;;;;;1.83;1.40;;;12.20;99.90;;;;;;5032514;28;20416;-73
2022/12/23 11:09:16;;;;;;;2.40;1.60;;;12.20;99.90;;;;;;5031142;28;20556;-71
2022/12/23 11:12:00;;;;;;;3.23;1.57;;;12.20;99.90;;;;;;5028795;28;20453;-72
2022/12/23 11:14:35;;;;;;;1.67;1.57;;;12.20;99.90;;;;;;5025119;28;20795;-72
2022/12/23 11:17:02;;;;;;;1.63;1.53;;;12.20;99.90;;;;;;5005225;28;20440;-72
2022/12/23 11:19:28;;;;;;;1.73;1.63;;;12.20;99.90;;;;;;5028064;28;20516;-73
2022/12/23 11:21:58;;;;;;;2.17;1.50;;;12.20;99.90;;;;;;5013987;28;20873;-71
2022/12/23 11:24:26;;;;;;;2.30;1.43;;;12.20;99.90;;;;;;5027014;28;20175;-72
2022/12/23 11:27:03;;;;;;;3.00;1.73;;;12.20;99.90;;;;;;5012550;28;20456;-72
2022/12/23 11:29:42;;;;;;;1.83;1.73;;;12.20;99.90;;;;;;5028131;28;20464;-72
2022/12/23 11:32:24;;;;;;;1.60;1.50;;;12.20;99.90;;;;;;5031839;28;20555;-72
2022/12/23 11:34:50;;;;;;;2.30;1.50;;;12.20;99.90;;;;;;5031802;28;20416;-72
2022/12/23 11:37:44;;;;;;;2.23;1.50;;;12.20;99.90;;;;;;5031546;28;20897;-73
2022/12/23 11:40:32;;;;;;;1.47;1.23;;;12.20;99.90;;;;;;5030041;28;20437;-71
2022/12/23 11:43:01;;;;;;;2.10;1.77;;;12.20;99.90;;;;;;5028238;28;20491;-71
2022/12/23 11:45:34;;;;;;;2.67;1.30;;;12.30;99.90;;;;;;5011440;28;20417;-71
2022/12/23 11:48:02;;;;;;;1.33;1.23;;;12.30;99.90;;;;;;5022803;28;21067;-72
2022/12/23 11:50:39;;;;;;;2.87;1.40;;;12.30;99.90;;;;;;5028908;28;20964;-71
2022/12/23 11:53:20;;;;;;;1.47;0.90;;;12.40;99.90;;;;;;5031102;28;20458;-71
2022/12/23 11:56:07;;;;;;;1.47;0.80;;;12.50;99.90;;;;;;5022570;28;20414;-72
2022/12/23 11:58:44;;;;;;;0.93;0.83;;;12.50;99.90;;;;;;5010941;28;20768;-73
2022/12/23 12:01:19;;;;;;;1.23;0.50;;;12.50;99.90;;;;;;5011457;28;20441;-73
2022/12/23 12:03:53;;;;;;;1.73;0.60;;;12.50;99.90;;;;;;5012671;28;20414;-72
2022/12/23 12:06:20;;;;;;;6.70;5.67;;;12.50;99.90;;;;;;5014128;28;20760;-73
2022/12/23 12:08:50;;;;;;;1.10;0.87;;;12.50;99.90;;;;;;5013530;28;20745;-72
2022/12/23 12:11:34;;;;;;;0.60;0.60;;;12.60;99.90;;;;;;5012662;28;20436;-72
2022/12/23 12:14:03;;;;;;;1.63;0.60;;;12.50;99.90;;;;;;5026135;28;20393;-73
2022/12/23 12:16:32;;;;;;;1.47;0.70;;;12.50;99.90;;;;;;5032731;28;20401;-72
2022/12/23 12:19:14;;;;;;;2.23;0.77;;;12.60;99.90;;;;;;5032047;28;20417;-72
2022/12/23 12:21:39;;;;;;;0.80;0.70;;;12.60;99.90;;;;;;5031566;28;20968;-72
2022/12/23 12:24:18;;;;;;;5.87;1.73;;;12.60;99.90;;;;;;5031674;28;20508;-72
2022/12/23 12:26:49;;;;;;;0.70;0.63;;;12.60;99.90;;;;;;5031645;28;20562;-72
2022/12/23 12:29:48;;;;;;;3.53;1.03;;;12.60;99.90;;;;;;5031368;28;20525;-72
2022/12/23 12:32:38;;;;;;;2.40;0.70;;;12.60;99.90;;;;;;5017099;28;20838;-72
2022/12/23 12:35:31;;;;;;;0.70;0.70;;;12.60;99.90;;;;;;5031923;28;20409;-72
2022/12/23 12:38:03;;;;;;;1.10;1.00;;;12.60;99.90;;;;;;5014861;28;20405;-72
2022/12/23 12:40:33;;;;;;;1.17;0.83;;;12.70;99.90;;;;;;5031157;28;20417;-72
2022/12/23 12:43:02;;;;;;;13.17;1.20;;;12.60;99.90;;;;;;5020574;28;20440;-72
2022/12/23 12:45:38;;;;;;;0.93;0.70;;;12.60;99.90;;;;;;5020102;28;20780;-72
2022/12/23 12:48:25;;;;;;;2.50;0.67;;;12.60;99.90;;;;;;5025852;28;20408;-73
2022/12/23 12:51:23;;;;;;;1.70;0.50;;;12.60;99.90;;;;;;5029550;28;20472;-72
2022/12/23 12:53:59;;;;;;;0.93;0.87;;;12.60;99.90;;;;;;4992457;28;20428;-72
2022/12/23 12:56:56;;;;;;;0.60;0.60;;;12.70;99.90;;;;;;5024924;28;20421;-71
2022/12/23 12:59:35;;;;;;;1.53;0.63;;;12.70;99.90;;;;;;5020461;28;20414;-72
2022/12/23 13:02:13;;;;;;;2.10;0.80;;;12.70;99.90;;;;;;5029404;28;20436;-72
2022/12/23 13:04:42;;;;;;;0.80;0.53;;;12.70;99.90;;;;;;5033789;28;20903;-72
2022/12/23 13:07:26;;;;;;;0.80;0.57;;;12.70;99.90;;;;;;5035333;28;20400;-72
2022/12/23 13:10:12;;;;;;;0.97;0.70;;;12.70;99.90;;;;;;5034999;28;20466;-72
2022/12/23 13:13:13;;;;;;;1.77;0.63;;;12.80;99.90;;;;;;5003531;28;20441;-72
2022/12/23 13:16:11;;;;;;;29.43;1.00;;;12.80;99.90;;;;;;4984656;28;20948;-73
2022/12/23 13:18:50;;;;;;;31.30;0.90;;;12.80;99.90;;;;;;5029430;28;20517;-72
2022/12/23 13:21:39;;;;;;;20.73;0.90;;;12.80;99.90;;;;;;5032905;28;20436;-72
2022/12/23 13:24:10;;;;;;;22.77;0.90;;;12.80;99.90;;;;;;5003452;28;21169;-72
2022/12/23 13:26:38;;;;;;;24.07;1.10;;;12.80;99.90;;;;;;5034349;28;20432;-73
2022/12/23 13:29:25;;;;;;;28.00;1.00;;;12.80;99.90;;;;;;5033651;28;20424;-72
2022/12/23 13:32:21;;;;;;;28.80;1.00;;;12.80;99.90;;;;;;5014786;28;20469;-73
2022/12/23 13:35:18;;;;;;;33.83;0.90;;;12.80;99.90;;;;;;5032808;28;20534;-71
2022/12/23 13:38:22;;;;;;;29.63;2.60;;;12.80;99.90;;;;;;5034440;28;20421;-72
2022/12/23 13:41:03;;;;;;;36.80;1.63;;;12.90;99.90;;;;;;5033817;28;20971;-72
2022/12/23 13:43:59;;;;;;;33.47;2.10;;;12.90;99.90;;;;;;5013179;28;20443;-72
2022/12/23 13:46:48;;;;;;;34.28;1.60;;;12.90;99.90;;;;;;5007737;28;20478;-71
2022/12/23 13:49:32;;;;;;;32.10;1.03;;;12.90;99.90;;;;;;5028444;28;20198;-71
2022/12/23 13:52:14;;;;;;;31.43;1.33;;;12.90;99.90;;;;;;5033649;28;20835;-72
2022/12/23 13:54:55;;;;;;;32.90;2.00;;;12.90;99.90;;;;;;5034159;28;20763;-72
2022/12/23 13:57:54;;;;;;;32.00;1.50;;;12.90;99.90;;;;;;5034370;28;20933;-72
2022/12/23 14:00:25;;;;;;;30.00;1.10;;;12.90;99.90;;;;;;5028543;28;20476;-71
2022/12/23 14:03:13;;;;;;;30.80;1.00;;;12.90;99.90;;;;;;5024563;28;20447;-71
2022/12/23 14:05:43;;;;;;;32.50;1.33;;;12.90;99.90;;;;;;5018067;28;20444;-71
2022/12/23 14:08:18;;;;;;;35.80;1.10;;;12.90;99.90;;;;;;5029582;28;20429;-71
2022/12/23 14:11:09;;;;;;;30.83;1.23;;;12.90;99.90;;;;;;5009863;28;20468;-71
2022/12/23 14:13:49;;;;;;;32.90;1.00;;;12.90;99.90;;;;;;5031868;28;20440;-71
2022/12/23 14:16:15;;;;;;;31.87;1.40;;;12.90;99.90;;;;;;5025804;28;20428;-70
2022/12/23 14:19:07;;;;;;;32.20;1.30;;;12.90;99.90;;;;;;5031526;28;20424;-71
2022/12/23 14:22:12;;;;;;;32.87;1.10;;;12.80;99.90;;;;;;5027783;28;20194;-71
2022/12/23 14:25:02;;;;;;;35.10;1.30;;;12.80;99.90;;;;;;5021235;28;20442;-72
2022/12/23 14:27:52;;;;;;;35.20;1.50;;;12.70;99.90;;;;;;5033835;28;20419;-71
2022/12/23 14:30:31;;;;;;;37.30;1.13;;;12.70;99.90;;;;;;5033080;28;20548;-71
2022/12/23 14:32:59;;;;;;;36.00;1.33;;;12.70;99.90;;;;;;5033224;28;20456;-71
2022/12/23 14:35:30;;;;;;;38.10;1.53;;;12.70;99.90;;;;;;5039052;28;21006;-71
2022/12/23 14:38:14;;;;;;;37.37;1.20;;;12.70;99.90;;;;;;5040113;28;20835;-71
2022/12/23 14:40:54;;;;;;;39.37;1.53;;;12.70;99.90;;;;;;5041885;28;20498;-70
2022/12/23 14:43:26;;;;;;;35.53;1.50;;;12.70;99.90;;;;;;5034451;28;20491;-71
2022/12/23 14:45:58;;;;;;;37.80;1.40;;;12.60;99.90;;;;;;5032339;28;20792;-70
2022/12/23 14:48:32;;;;;;;36.90;1.40;;;12.60;99.90;;;;;;5029974;28;20457;-70